sensor_id;sensor_type;location;lat;lon;timestamp;P1;durP1;ratioP1;P2;durP2;ratioP2
36797;SDS011;22748;8.426;99.512;2023-12-14T00:01:50;67.18;;;62.17;;
36797;SDS011;22748;8.426;99.512;2023-12-14T00:04:24;68.38;;;63.78;;
36797;SDS011;22748;8.426;99.512;2023-12-14T00:06:56;66.82;;;62.30;;
36797;SDS011;22748;8.426;99.512;2023-12-14T00:09:28;65.50;;;60.70;;
36797;SDS011;22748;8.426;99.512;2023-12-14T00:12:02;61.85;;;57.60;;
36797;SDS011;22748;8.426;99.512;2023-12-14T00:14:35;60.33;;;55.95;;
36797;SDS011;22748;8.426;99.512;2023-12-14T00:17:06;62.55;;;58.35;;
36797;SDS011;22748;8.426;99.512;2023-12-14T00:19:37;63.42;;;59.00;;
36797;SDS011;22748;8.426;99.512;2023-12-14T00:22:08;59.10;;;55.15;;
36797;SDS011;22748;8.426;99.512;2023-12-14T00:24:41;71.70;;;66.25;;
36797;SDS011;22748;8.426;99.512;2023-12-14T00:27:11;66.95;;;61.60;;
36797;SDS011;22748;8.426;99.512;2023-12-14T00:29:43;67.35;;;62.10;;
36797;SDS011;22748;8.426;99.512;2023-12-14T00:32:14;70.10;;;64.18;;
36797;SDS011;22748;8.426;99.512;2023-12-14T00:34:45;61.00;;;56.10;;
36797;SDS011;22748;8.426;99.512;2023-12-14T00:37:16;63.63;;;58.55;;
36797;SDS011;22748;8.426;99.512;2023-12-14T00:39:46;61.80;;;57.53;;
36797;SDS011;22748;8.426;99.512;2023-12-14T00:42:16;59.47;;;55.55;;
36797;SDS011;22748;8.426;99.512;2023-12-14T00:44:48;59.45;;;55.40;;
36797;SDS011;22748;8.426;99.512;2023-12-14T00:47:19;64.15;;;59.83;;
36797;SDS011;22748;8.426;99.512;2023-12-14T00:49:49;106.57;;;97.95;;
36797;SDS011;22748;8.426;99.512;2023-12-14T00:52:20;80.07;;;73.97;;
36797;SDS011;22748;8.426;99.512;2023-12-14T00:57:22;63.38;;;58.70;;
36797;SDS011;22748;8.426;99.512;2023-12-14T00:59:55;63.08;;;58.55;;
36797;SDS011;22748;8.426;99.512;2023-12-14T01:02:25;67.55;;;63.10;;
36797;SDS011;22748;8.426;99.512;2023-12-14T01:05:01;65.25;;;61.25;;
36797;SDS011;22748;8.426;99.512;2023-12-14T01:07:33;63.00;;;58.83;;
36797;SDS011;22748;8.426;99.512;2023-12-14T01:12:33;60.10;;;56.10;;
36797;SDS011;22748;8.426;99.512;2023-12-14T01:15:08;61.42;;;57.00;;
36797;SDS011;22748;8.426;99.512;2023-12-14T01:17:40;60.03;;;56.03;;
36797;SDS011;22748;8.426;99.512;2023-12-14T01:20:11;64.30;;;60.00;;
36797;SDS011;22748;8.426;99.512;2023-12-14T01:22:41;60.55;;;56.75;;
36797;SDS011;22748;8.426;99.512;2023-12-14T01:25:13;59.20;;;55.30;;
36797;SDS011;22748;8.426;99.512;2023-12-14T01:30:16;55.40;;;51.78;;
36797;SDS011;22748;8.426;99.512;2023-12-14T01:32:47;66.05;;;61.65;;
36797;SDS011;22748;8.426;99.512;2023-12-14T01:35:18;62.47;;;58.22;;
36797;SDS011;22748;8.426;99.512;2023-12-14T01:42:51;38.15;;;34.97;;
36797;SDS011;22748;8.426;99.512;2023-12-14T01:45:24;35.67;;;32.25;;
36797;SDS011;22748;8.426;99.512;2023-12-14T01:47:54;30.17;;;27.48;;
36797;SDS011;22748;8.426;99.512;2023-12-14T01:50:24;31.27;;;27.92;;
36797;SDS011;22748;8.426;99.512;2023-12-14T01:52:55;40.47;;;32.10;;
36797;SDS011;22748;8.426;99.512;2023-12-14T01:55:25;40.95;;;37.15;;
36797;SDS011;22748;8.426;99.512;2023-12-14T01:57:57;40.50;;;36.50;;
36797;SDS011;22748;8.426;99.512;2023-12-14T02:00:30;45.15;;;40.65;;
36797;SDS011;22748;8.426;99.512;2023-12-14T02:03:09;49.00;;;44.60;;
36797;SDS011;22748;8.426;99.512;2023-12-14T02:08:09;49.85;;;45.00;;
36797;SDS011;22748;8.426;99.512;2023-12-14T02:10:39;56.72;;;51.53;;
36797;SDS011;22748;8.426;99.512;2023-12-14T02:13:09;66.03;;;60.88;;
36797;SDS011;22748;8.426;99.512;2023-12-14T02:15:43;66.85;;;61.65;;
36797;SDS011;22748;8.426;99.512;2023-12-14T02:18:14;64.57;;;59.22;;
36797;SDS011;22748;8.426;99.512;2023-12-14T02:20:45;53.95;;;49.25;;
36797;SDS011;22748;8.426;99.512;2023-12-14T02:23:18;51.05;;;46.78;;
36797;SDS011;22748;8.426;99.512;2023-12-14T02:25:48;48.40;;;44.40;;
36797;SDS011;22748;8.426;99.512;2023-12-14T02:28:19;45.45;;;41.67;;
36797;SDS011;22748;8.426;99.512;2023-12-14T02:30:50;44.95;;;41.38;;
36797;SDS011;22748;8.426;99.512;2023-12-14T02:33:21;43.47;;;40.20;;
36797;SDS011;22748;8.426;99.512;2023-12-14T02:35:52;46.17;;;42.70;;
36797;SDS011;22748;8.426;99.512;2023-12-14T02:38:26;44.30;;;40.22;;
36797;SDS011;22748;8.426;99.512;2023-12-14T02:41:03;43.33;;;39.00;;
36797;SDS011;22748;8.426;99.512;2023-12-14T02:43:35;43.35;;;39.88;;
36797;SDS011;22748;8.426;99.512;2023-12-14T02:46:07;42.70;;;39.15;;
36797;SDS011;22748;8.426;99.512;2023-12-14T02:48:41;44.30;;;40.17;;
36797;SDS011;22748;8.426;99.512;2023-12-14T02:51:13;48.22;;;44.03;;
36797;SDS011;22748;8.426;99.512;2023-12-14T02:53:47;47.38;;;43.53;;
36797;SDS011;22748;8.426;99.512;2023-12-14T02:56:17;46.35;;;42.25;;
36797;SDS011;22748;8.426;99.512;2023-12-14T02:58:51;44.42;;;40.30;;
36797;SDS011;22748;8.426;99.512;2023-12-14T03:01:21;44.03;;;40.45;;
36797;SDS011;22748;8.426;99.512;2023-12-14T03:03:52;43.75;;;40.28;;
36797;SDS011;22748;8.426;99.512;2023-12-14T03:06:23;47.90;;;44.28;;
36797;SDS011;22748;8.426;99.512;2023-12-14T03:11:27;44.60;;;40.80;;
36797;SDS011;22748;8.426;99.512;2023-12-14T03:16:28;43.80;;;40.33;;
36797;SDS011;22748;8.426;99.512;2023-12-14T03:18:59;42.65;;;39.65;;
36797;SDS011;22748;8.426;99.512;2023-12-14T03:21:31;45.05;;;41.60;;
36797;SDS011;22748;8.426;99.512;2023-12-14T03:26:33;47.33;;;43.47;;
36797;SDS011;22748;8.426;99.512;2023-12-14T03:29:03;48.08;;;44.28;;
36797;SDS011;22748;8.426;99.512;2023-12-14T03:31:34;46.53;;;42.17;;
36797;SDS011;22748;8.426;99.512;2023-12-14T03:34:06;45.63;;;41.70;;
36797;SDS011;22748;8.426;99.512;2023-12-14T03:36:36;43.05;;;39.80;;
36797;SDS011;22748;8.426;99.512;2023-12-14T03:39:10;43.03;;;39.75;;
36797;SDS011;22748;8.426;99.512;2023-12-14T03:41:41;45.08;;;41.58;;
36797;SDS011;22748;8.426;99.512;2023-12-14T03:44:12;43.42;;;39.92;;
36797;SDS011;22748;8.426;99.512;2023-12-14T03:49:12;45.28;;;41.75;;
36797;SDS011;22748;8.426;99.512;2023-12-14T03:51:42;43.30;;;40.20;;
36797;SDS011;22748;8.426;99.512;2023-12-14T03:54:14;42.92;;;39.95;;
36797;SDS011;22748;8.426;99.512;2023-12-14T03:56:44;41.88;;;38.60;;
36797;SDS011;22748;8.426;99.512;2023-12-14T03:59:19;40.20;;;37.20;;
36797;SDS011;22748;8.426;99.512;2023-12-14T04:01:49;39.17;;;36.17;;
36797;SDS011;22748;8.426;99.512;2023-12-14T04:04:19;41.10;;;38.00;;
36797;SDS011;22748;8.426;99.512;2023-12-14T04:06:50;39.45;;;36.58;;
36797;SDS011;22748;8.426;99.512;2023-12-14T04:09:22;36.38;;;33.58;;
36797;SDS011;22748;8.426;99.512;2023-12-14T04:11:52;36.72;;;34.05;;
36797;SDS011;22748;8.426;99.512;2023-12-14T04:14:42;38.63;;;35.63;;
36797;SDS011;22748;8.426;99.512;2023-12-14T04:17:16;39.28;;;35.50;;
36797;SDS011;22748;8.426;99.512;2023-12-14T04:19:46;37.27;;;34.40;;
36797;SDS011;22748;8.426;99.512;2023-12-14T04:22:17;38.50;;;35.33;;
36797;SDS011;22748;8.426;99.512;2023-12-14T04:27:22;35.30;;;32.53;;
36797;SDS011;22748;8.426;99.512;2023-12-14T04:29:56;33.90;;;31.13;;
36797;SDS011;22748;8.426;99.512;2023-12-14T04:32:26;32.50;;;29.75;;
36797;SDS011;22748;8.426;99.512;2023-12-14T04:34:57;34.58;;;32.05;;
36797;SDS011;22748;8.426;99.512;2023-12-14T04:37:29;32.85;;;30.30;;
36797;SDS011;22748;8.426;99.512;2023-12-14T04:40:01;33.47;;;30.65;;
36797;SDS011;22748;8.426;99.512;2023-12-14T04:42:32;29.92;;;27.63;;
36797;SDS011;22748;8.426;99.512;2023-12-14T04:45:03;32.87;;;30.47;;
36797;SDS011;22748;8.426;99.512;2023-12-14T04:47:37;29.92;;;27.70;;
36797;SDS011;22748;8.426;99.512;2023-12-14T04:50:11;33.97;;;31.20;;
36797;SDS011;22748;8.426;99.512;2023-12-14T04:52:41;33.78;;;31.27;;
36797;SDS011;22748;8.426;99.512;2023-12-14T04:55:14;28.95;;;26.30;;
36797;SDS011;22748;8.426;99.512;2023-12-14T04:57:45;32.70;;;30.20;;
36797;SDS011;22748;8.426;99.512;2023-12-14T05:00:16;31.15;;;28.52;;
36797;SDS011;22748;8.426;99.512;2023-12-14T05:02:47;31.67;;;29.05;;
36797;SDS011;22748;8.426;99.512;2023-12-14T05:05:21;29.15;;;26.73;;
36797;SDS011;22748;8.426;99.512;2023-12-14T05:07:51;32.75;;;30.10;;
36797;SDS011;22748;8.426;99.512;2023-12-14T05:10:24;32.80;;;30.15;;
36797;SDS011;22748;8.426;99.512;2023-12-14T05:12:55;33.17;;;30.65;;
36797;SDS011;22748;8.426;99.512;2023-12-14T05:15:29;32.25;;;29.40;;
36797;SDS011;22748;8.426;99.512;2023-12-14T05:20:30;32.22;;;29.60;;
36797;SDS011;22748;8.426;99.512;2023-12-14T05:23:01;33.15;;;30.55;;
36797;SDS011;22748;8.426;99.512;2023-12-14T05:25:36;32.58;;;29.88;;
36797;SDS011;22748;8.426;99.512;2023-12-14T05:28:07;33.47;;;30.88;;
36797;SDS011;22748;8.426;99.512;2023-12-14T05:33:08;34.45;;;31.75;;
36797;SDS011;22748;8.426;99.512;2023-12-14T05:38:09;32.78;;;30.35;;
36797;SDS011;22748;8.426;99.512;2023-12-14T05:40:42;31.85;;;29.38;;
36797;SDS011;22748;8.426;99.512;2023-12-14T05:43:14;32.30;;;29.50;;
36797;SDS011;22748;8.426;99.512;2023-12-14T05:45:45;31.65;;;28.98;;
36797;SDS011;22748;8.426;99.512;2023-12-14T05:48:15;31.58;;;29.15;;
36797;SDS011;22748;8.426;99.512;2023-12-14T05:50:46;35.40;;;32.83;;
36797;SDS011;22748;8.426;99.512;2023-12-14T05:53:17;30.25;;;27.75;;
36797;SDS011;22748;8.426;99.512;2023-12-14T05:55:50;32.85;;;30.48;;
36797;SDS011;22748;8.426;99.512;2023-12-14T05:58:20;34.40;;;31.95;;
36797;SDS011;22748;8.426;99.512;2023-12-14T06:00:50;36.53;;;33.47;;
36797;SDS011;22748;8.426;99.512;2023-12-14T06:03:26;33.70;;;31.10;;
36797;SDS011;22748;8.426;99.512;2023-12-14T06:05:57;47.85;;;31.02;;
36797;SDS011;22748;8.426;99.512;2023-12-14T06:08:28;30.20;;;28.10;;
36797;SDS011;22748;8.426;99.512;2023-12-14T06:11:01;34.75;;;31.92;;
36797;SDS011;22748;8.426;99.512;2023-12-14T06:13:32;35.70;;;32.58;;
36797;SDS011;22748;8.426;99.512;2023-12-14T06:16:04;36.20;;;33.33;;
36797;SDS011;22748;8.426;99.512;2023-12-14T06:18:39;30.63;;;28.33;;
36797;SDS011;22748;8.426;99.512;2023-12-14T06:21:11;35.63;;;33.17;;
36797;SDS011;22748;8.426;99.512;2023-12-14T06:23:43;37.20;;;34.75;;
36797;SDS011;22748;8.426;99.512;2023-12-14T06:26:16;35.97;;;33.38;;
36797;SDS011;22748;8.426;99.512;2023-12-14T06:28:48;32.90;;;30.48;;
36797;SDS011;22748;8.426;99.512;2023-12-14T06:31:19;40.00;;;37.13;;
36797;SDS011;22748;8.426;99.512;2023-12-14T06:33:50;35.42;;;33.13;;
36797;SDS011;22748;8.426;99.512;2023-12-14T06:36:20;45.72;;;42.75;;
36797;SDS011;22748;8.426;99.512;2023-12-14T06:38:53;34.03;;;31.23;;
36797;SDS011;22748;8.426;99.512;2023-12-14T06:41:25;29.83;;;27.33;;
36797;SDS011;22748;8.426;99.512;2023-12-14T06:43:55;35.47;;;33.08;;
36797;SDS011;22748;8.426;99.512;2023-12-14T06:46:31;37.33;;;34.70;;
36797;SDS011;22748;8.426;99.512;2023-12-14T06:49:01;31.83;;;29.45;;
36797;SDS011;22748;8.426;99.512;2023-12-14T06:51:32;33.75;;;31.35;;
36797;SDS011;22748;8.426;99.512;2023-12-14T06:54:03;30.63;;;28.30;;
36797;SDS011;22748;8.426;99.512;2023-12-14T06:56:38;37.90;;;35.20;;
36797;SDS011;22748;8.426;99.512;2023-12-14T06:59:10;36.47;;;33.88;;
36797;SDS011;22748;8.426;99.512;2023-12-14T07:01:40;36.63;;;33.67;;
36797;SDS011;22748;8.426;99.512;2023-12-14T07:04:11;35.25;;;32.08;;
36797;SDS011;22748;8.426;99.512;2023-12-14T07:06:43;37.72;;;34.42;;
36797;SDS011;22748;8.426;99.512;2023-12-14T07:09:20;35.47;;;32.25;;
36797;SDS011;22748;8.426;99.512;2023-12-14T07:11:55;33.63;;;31.00;;
36797;SDS011;22748;8.426;99.512;2023-12-14T07:14:29;33.03;;;30.40;;
36797;SDS011;22748;8.426;99.512;2023-12-14T07:17:01;31.92;;;29.48;;
36797;SDS011;22748;8.426;99.512;2023-12-14T07:19:33;34.35;;;31.52;;
36797;SDS011;22748;8.426;99.512;2023-12-14T07:22:10;33.17;;;30.77;;
36797;SDS011;22748;8.426;99.512;2023-12-14T07:24:41;34.28;;;31.08;;
36797;SDS011;22748;8.426;99.512;2023-12-14T07:27:13;28.83;;;26.58;;
36797;SDS011;22748;8.426;99.512;2023-12-14T07:29:45;32.85;;;30.63;;
36797;SDS011;22748;8.426;99.512;2023-12-14T07:32:18;34.65;;;32.35;;
36797;SDS011;22748;8.426;99.512;2023-12-14T07:34:49;35.95;;;33.35;;
36797;SDS011;22748;8.426;99.512;2023-12-14T07:37:21;32.60;;;30.10;;
36797;SDS011;22748;8.426;99.512;2023-12-14T07:39:53;32.50;;;30.27;;
36797;SDS011;22748;8.426;99.512;2023-12-14T07:42:29;33.05;;;30.83;;
36797;SDS011;22748;8.426;99.512;2023-12-14T07:45:00;33.95;;;31.27;;
36797;SDS011;22748;8.426;99.512;2023-12-14T07:47:31;33.50;;;31.07;;
36797;SDS011;22748;8.426;99.512;2023-12-14T07:52:30;28.65;;;26.35;;
36797;SDS011;22748;8.426;99.512;2023-12-14T07:55:01;27.35;;;25.50;;
36797;SDS011;22748;8.426;99.512;2023-12-14T07:57:33;32.58;;;30.48;;
36797;SDS011;22748;8.426;99.512;2023-12-14T08:00:04;30.30;;;27.60;;
36797;SDS011;22748;8.426;99.512;2023-12-14T08:02:36;32.05;;;29.58;;
36797;SDS011;22748;8.426;99.512;2023-12-14T08:05:08;38.42;;;34.85;;
36797;SDS011;22748;8.426;99.512;2023-12-14T08:07:39;33.67;;;31.35;;
36797;SDS011;22748;8.426;99.512;2023-12-14T08:10:11;34.13;;;31.58;;
36797;SDS011;22748;8.426;99.512;2023-12-14T08:12:43;32.70;;;29.80;;
36797;SDS011;22748;8.426;99.512;2023-12-14T08:15:17;32.47;;;29.98;;
36797;SDS011;22748;8.426;99.512;2023-12-14T08:17:47;35.47;;;32.13;;
36797;SDS011;22748;8.426;99.512;2023-12-14T08:20:18;31.38;;;28.98;;
36797;SDS011;22748;8.426;99.512;2023-12-14T08:22:50;17.58;;;16.00;;
36797;SDS011;22748;8.426;99.512;2023-12-14T08:25:21;34.92;;;32.72;;
36797;SDS011;22748;8.426;99.512;2023-12-14T08:27:54;35.40;;;32.95;;
36797;SDS011;22748;8.426;99.512;2023-12-14T08:30:25;35.10;;;32.25;;
36797;SDS011;22748;8.426;99.512;2023-12-14T08:32:56;33.50;;;31.00;;
36797;SDS011;22748;8.426;99.512;2023-12-14T08:35:27;36.73;;;34.20;;
36797;SDS011;22748;8.426;99.512;2023-12-14T08:37:57;33.38;;;30.77;;
36797;SDS011;22748;8.426;99.512;2023-12-14T08:40:28;27.35;;;25.35;;
36797;SDS011;22748;8.426;99.512;2023-12-14T08:43:01;31.97;;;29.67;;
36797;SDS011;22748;8.426;99.512;2023-12-14T08:45:31;34.40;;;31.80;;
36797;SDS011;22748;8.426;99.512;2023-12-14T08:48:02;31.37;;;29.13;;
36797;SDS011;22748;8.426;99.512;2023-12-14T08:50:32;35.22;;;32.63;;
36797;SDS011;22748;8.426;99.512;2023-12-14T08:55:59;18.50;;;16.83;;
36797;SDS011;22748;8.426;99.512;2023-12-14T08:58:31;19.55;;;17.50;;
36797;SDS011;22748;8.426;99.512;2023-12-14T09:01:03;18.48;;;16.77;;
36797;SDS011;22748;8.426;99.512;2023-12-14T09:03:34;18.95;;;17.30;;
36797;SDS011;22748;8.426;99.512;2023-12-14T09:06:04;19.15;;;17.38;;
36797;SDS011;22748;8.426;99.512;2023-12-14T09:08:35;17.08;;;15.57;;
36797;SDS011;22748;8.426;99.512;2023-12-14T09:11:07;17.45;;;15.82;;
36797;SDS011;22748;8.426;99.512;2023-12-14T09:16:10;16.17;;;14.73;;
36797;SDS011;22748;8.426;99.512;2023-12-14T09:18:40;16.00;;;14.73;;
36797;SDS011;22748;8.426;99.512;2023-12-14T09:21:11;16.23;;;14.68;;
36797;SDS011;22748;8.426;99.512;2023-12-14T09:23:43;15.82;;;14.52;;
36797;SDS011;22748;8.426;99.512;2023-12-14T09:26:14;14.90;;;13.88;;
36797;SDS011;22748;8.426;99.512;2023-12-14T09:28:49;13.82;;;12.55;;
36797;SDS011;22748;8.426;99.512;2023-12-14T09:31:19;14.70;;;13.50;;
36797;SDS011;22748;8.426;99.512;2023-12-14T09:33:49;15.07;;;13.83;;
36797;SDS011;22748;8.426;99.512;2023-12-14T09:36:19;17.73;;;16.42;;
36797;SDS011;22748;8.426;99.512;2023-12-14T09:38:50;20.35;;;18.40;;
36797;SDS011;22748;8.426;99.512;2023-12-14T09:41:20;18.05;;;16.33;;
36797;SDS011;22748;8.426;99.512;2023-12-14T09:43:59;28.70;;;26.13;;
36797;SDS011;22748;8.426;99.512;2023-12-14T09:46:31;31.63;;;28.48;;
36797;SDS011;22748;8.426;99.512;2023-12-14T09:49:07;35.20;;;31.65;;
36797;SDS011;22748;8.426;99.512;2023-12-14T09:51:44;35.72;;;31.80;;
36797;SDS011;22748;8.426;99.512;2023-12-14T09:54:14;28.23;;;25.30;;
36797;SDS011;22748;8.426;99.512;2023-12-14T09:56:48;31.90;;;29.27;;
36797;SDS011;22748;8.426;99.512;2023-12-14T09:59:21;31.52;;;28.60;;
36797;SDS011;22748;8.426;99.512;2023-12-14T10:01:52;26.63;;;24.40;;
36797;SDS011;22748;8.426;99.512;2023-12-14T10:04:38;28.30;;;25.73;;
36797;SDS011;22748;8.426;99.512;2023-12-14T10:07:08;30.98;;;26.95;;
36797;SDS011;22748;8.426;99.512;2023-12-14T10:09:40;32.22;;;29.10;;
36797;SDS011;22748;8.426;99.512;2023-12-14T10:12:10;49.40;;;38.67;;
36797;SDS011;22748;8.426;99.512;2023-12-14T10:14:42;47.97;;;38.05;;
36797;SDS011;22748;8.426;99.512;2023-12-14T10:17:18;40.95;;;31.38;;
36797;SDS011;22748;8.426;99.512;2023-12-14T10:19:58;36.67;;;32.90;;
36797;SDS011;22748;8.426;99.512;2023-12-14T10:22:31;35.97;;;32.42;;
36797;SDS011;22748;8.426;99.512;2023-12-14T10:25:04;48.35;;;42.67;;
36797;SDS011;22748;8.426;99.512;2023-12-14T10:27:37;46.67;;;41.70;;
36797;SDS011;22748;8.426;99.512;2023-12-14T10:30:12;38.47;;;34.40;;
36797;SDS011;22748;8.426;99.512;2023-12-14T10:32:43;41.00;;;37.08;;
36797;SDS011;22748;8.426;99.512;2023-12-14T10:35:14;37.50;;;34.05;;
36797;SDS011;22748;8.426;99.512;2023-12-14T10:37:45;36.28;;;32.85;;
36797;SDS011;22748;8.426;99.512;2023-12-14T10:40:17;42.28;;;38.75;;
36797;SDS011;22748;8.426;99.512;2023-12-14T10:42:49;32.33;;;28.88;;
36797;SDS011;22748;8.426;99.512;2023-12-14T10:45:25;39.85;;;36.05;;
36797;SDS011;22748;8.426;99.512;2023-12-14T10:47:59;39.05;;;35.92;;
36797;SDS011;22748;8.426;99.512;2023-12-14T10:50:31;40.53;;;37.30;;
36797;SDS011;22748;8.426;99.512;2023-12-14T10:53:08;38.67;;;35.55;;
36797;SDS011;22748;8.426;99.512;2023-12-14T10:55:41;40.53;;;37.38;;
36797;SDS011;22748;8.426;99.512;2023-12-14T10:58:14;41.13;;;38.30;;
36797;SDS011;22748;8.426;99.512;2023-12-14T11:03:33;30.13;;;27.67;;
36797;SDS011;22748;8.426;99.512;2023-12-14T11:06:19;40.70;;;37.70;;
36797;SDS011;22748;8.426;99.512;2023-12-14T11:08:54;41.65;;;38.65;;
36797;SDS011;22748;8.426;99.512;2023-12-14T11:11:38;44.67;;;41.28;;
36797;SDS011;22748;8.426;99.512;2023-12-14T11:14:32;42.47;;;39.10;;
36797;SDS011;22748;8.426;99.512;2023-12-14T11:17:10;43.28;;;39.83;;
36797;SDS011;22748;8.426;99.512;2023-12-14T11:19:43;42.47;;;39.45;;
36797;SDS011;22748;8.426;99.512;2023-12-14T11:22:23;44.63;;;41.25;;
36797;SDS011;22748;8.426;99.512;2023-12-14T11:24:56;44.00;;;40.22;;
36797;SDS011;22748;8.426;99.512;2023-12-14T11:27:27;37.97;;;34.45;;
36797;SDS011;22748;8.426;99.512;2023-12-14T11:30:00;35.53;;;32.72;;
36797;SDS011;22748;8.426;99.512;2023-12-14T11:32:35;40.70;;;37.58;;
36797;SDS011;22748;8.426;99.512;2023-12-14T11:35:17;40.03;;;36.72;;
36797;SDS011;22748;8.426;99.512;2023-12-14T11:37:53;39.83;;;36.72;;
36797;SDS011;22748;8.426;99.512;2023-12-14T11:40:26;38.35;;;34.97;;
36797;SDS011;22748;8.426;99.512;2023-12-14T11:45:44;29.50;;;27.17;;
36797;SDS011;22748;8.426;99.512;2023-12-14T11:48:17;42.58;;;39.25;;
36797;SDS011;22748;8.426;99.512;2023-12-14T11:51:00;44.00;;;40.42;;
36797;SDS011;22748;8.426;99.512;2023-12-14T11:53:36;41.97;;;38.35;;
36797;SDS011;22748;8.426;99.512;2023-12-14T11:56:12;41.88;;;38.47;;
36797;SDS011;22748;8.426;99.512;2023-12-14T11:58:45;40.08;;;36.75;;
36797;SDS011;22748;8.426;99.512;2023-12-14T12:01:16;39.60;;;35.70;;
36797;SDS011;22748;8.426;99.512;2023-12-14T12:03:49;39.83;;;36.10;;
36797;SDS011;22748;8.426;99.512;2023-12-14T12:06:21;35.05;;;31.55;;
36797;SDS011;22748;8.426;99.512;2023-12-14T12:08:53;35.08;;;31.63;;
36797;SDS011;22748;8.426;99.512;2023-12-14T12:11:26;32.38;;;28.98;;
36797;SDS011;22748;8.426;99.512;2023-12-14T12:13:55;29.42;;;26.95;;
36797;SDS011;22748;8.426;99.512;2023-12-14T12:16:27;27.30;;;24.98;;
36797;SDS011;22748;8.426;99.512;2023-12-14T12:19:24;27.20;;;24.80;;
36797;SDS011;22748;8.426;99.512;2023-12-14T12:21:57;27.83;;;24.83;;
36797;SDS011;22748;8.426;99.512;2023-12-14T12:24:27;31.35;;;28.58;;
36797;SDS011;22748;8.426;99.512;2023-12-14T12:27:01;31.00;;;28.25;;
36797;SDS011;22748;8.426;99.512;2023-12-14T12:29:32;28.25;;;25.73;;
36797;SDS011;22748;8.426;99.512;2023-12-14T12:32:03;26.52;;;24.30;;
36797;SDS011;22748;8.426;99.512;2023-12-14T12:37:05;19.55;;;17.70;;
36797;SDS011;22748;8.426;99.512;2023-12-14T12:39:35;23.77;;;21.52;;
36797;SDS011;22748;8.426;99.512;2023-12-14T12:42:08;24.92;;;22.92;;
36797;SDS011;22748;8.426;99.512;2023-12-14T12:47:08;20.15;;;18.23;;
36797;SDS011;22748;8.426;99.512;2023-12-14T12:49:41;25.48;;;22.70;;
36797;SDS011;22748;8.426;99.512;2023-12-14T12:52:12;34.90;;;27.67;;
36797;SDS011;22748;8.426;99.512;2023-12-14T12:54:42;37.90;;;29.60;;
36797;SDS011;22748;8.426;99.512;2023-12-14T12:57:16;47.65;;;35.65;;
36797;SDS011;22748;8.426;99.512;2023-12-14T12:59:46;58.50;;;38.03;;
36797;SDS011;22748;8.426;99.512;2023-12-14T13:02:17;56.00;;;39.35;;
36797;SDS011;22748;8.426;99.512;2023-12-14T13:04:49;56.85;;;41.15;;
36797;SDS011;22748;8.426;99.512;2023-12-14T13:07:19;51.83;;;35.00;;
36797;SDS011;22748;8.426;99.512;2023-12-14T13:09:50;35.70;;;28.88;;
36797;SDS011;22748;8.426;99.512;2023-12-14T13:12:21;35.88;;;30.58;;
36797;SDS011;22748;8.426;99.512;2023-12-14T13:14:57;47.67;;;38.15;;
36797;SDS011;22748;8.426;99.512;2023-12-14T13:17:28;43.25;;;36.90;;
36797;SDS011;22748;8.426;99.512;2023-12-14T13:20:00;36.28;;;32.53;;
36797;SDS011;22748;8.426;99.512;2023-12-14T13:22:34;32.00;;;28.65;;
36797;SDS011;22748;8.426;99.512;2023-12-14T13:25:05;32.20;;;28.92;;
36797;SDS011;22748;8.426;99.512;2023-12-14T13:27:36;28.83;;;25.88;;
36797;SDS011;22748;8.426;99.512;2023-12-14T13:30:09;29.75;;;26.95;;
36797;SDS011;22748;8.426;99.512;2023-12-14T13:32:42;28.30;;;25.77;;
36797;SDS011;22748;8.426;99.512;2023-12-14T13:35:14;27.08;;;24.63;;
36797;SDS011;22748;8.426;99.512;2023-12-14T13:37:45;27.75;;;25.25;;
36797;SDS011;22748;8.426;99.512;2023-12-14T13:40:25;25.15;;;22.80;;
36797;SDS011;22748;8.426;99.512;2023-12-14T13:42:59;27.02;;;24.40;;
36797;SDS011;22748;8.426;99.512;2023-12-14T13:45:36;23.50;;;21.80;;
36797;SDS011;22748;8.426;99.512;2023-12-14T13:48:09;25.50;;;23.38;;
36797;SDS011;22748;8.426;99.512;2023-12-14T13:50:41;27.50;;;25.02;;
36797;SDS011;22748;8.426;99.512;2023-12-14T13:53:11;31.08;;;28.10;;
36797;SDS011;22748;8.426;99.512;2023-12-14T13:55:43;34.47;;;31.02;;
36797;SDS011;22748;8.426;99.512;2023-12-14T13:58:17;36.97;;;33.42;;
36797;SDS011;22748;8.426;99.512;2023-12-14T14:00:48;33.17;;;29.77;;
36797;SDS011;22748;8.426;99.512;2023-12-14T14:03:18;35.83;;;32.20;;
36797;SDS011;22748;8.426;99.512;2023-12-14T14:05:51;31.83;;;28.95;;
36797;SDS011;22748;8.426;99.512;2023-12-14T14:08:23;28.95;;;25.73;;
36797;SDS011;22748;8.426;99.512;2023-12-14T14:10:53;28.35;;;25.67;;
36797;SDS011;22748;8.426;99.512;2023-12-14T14:13:23;24.73;;;22.45;;
36797;SDS011;22748;8.426;99.512;2023-12-14T14:15:54;24.20;;;22.07;;
36797;SDS011;22748;8.426;99.512;2023-12-14T14:18:25;23.88;;;21.67;;
36797;SDS011;22748;8.426;99.512;2023-12-14T14:20:57;25.92;;;23.73;;
36797;SDS011;22748;8.426;99.512;2023-12-14T14:23:27;25.55;;;23.33;;
36797;SDS011;22748;8.426;99.512;2023-12-14T14:25:57;25.47;;;23.40;;
36797;SDS011;22748;8.426;99.512;2023-12-14T14:28:27;23.50;;;21.38;;
36797;SDS011;22748;8.426;99.512;2023-12-14T14:30:58;24.70;;;22.63;;
36797;SDS011;22748;8.426;99.512;2023-12-14T14:33:30;26.15;;;23.58;;
36797;SDS011;22748;8.426;99.512;2023-12-14T14:36:02;24.73;;;22.20;;
36797;SDS011;22748;8.426;99.512;2023-12-14T14:38:32;25.77;;;23.13;;
36797;SDS011;22748;8.426;99.512;2023-12-14T14:41:06;21.85;;;19.85;;
36797;SDS011;22748;8.426;99.512;2023-12-14T14:43:37;23.17;;;20.85;;
36797;SDS011;22748;8.426;99.512;2023-12-14T14:46:10;22.50;;;20.33;;
36797;SDS011;22748;8.426;99.512;2023-12-14T14:48:41;22.85;;;20.77;;
36797;SDS011;22748;8.426;99.512;2023-12-14T14:51:14;23.05;;;20.85;;
36797;SDS011;22748;8.426;99.512;2023-12-14T14:53:45;21.92;;;19.98;;
36797;SDS011;22748;8.426;99.512;2023-12-14T14:56:16;23.30;;;21.13;;
36797;SDS011;22748;8.426;99.512;2023-12-14T14:58:46;23.23;;;21.17;;
36797;SDS011;22748;8.426;99.512;2023-12-14T15:01:17;21.65;;;19.75;;
36797;SDS011;22748;8.426;99.512;2023-12-14T15:03:50;23.63;;;21.27;;
36797;SDS011;22748;8.426;99.512;2023-12-14T15:08:52;21.92;;;19.05;;
36797;SDS011;22748;8.426;99.512;2023-12-14T15:11:23;37.13;;;20.45;;
36797;SDS011;22748;8.426;99.512;2023-12-14T15:13:53;23.67;;;21.35;;
36797;SDS011;22748;8.426;99.512;2023-12-14T15:16:24;26.90;;;21.40;;
36797;SDS011;22748;8.426;99.512;2023-12-14T15:18:57;27.25;;;23.13;;
36797;SDS011;22748;8.426;99.512;2023-12-14T15:21:32;22.30;;;20.33;;
36797;SDS011;22748;8.426;99.512;2023-12-14T15:24:02;22.05;;;19.73;;
36797;SDS011;22748;8.426;99.512;2023-12-14T15:26:37;21.98;;;19.77;;
36797;SDS011;22748;8.426;99.512;2023-12-14T15:29:10;22.27;;;20.00;;
36797;SDS011;22748;8.426;99.512;2023-12-14T15:31:41;32.08;;;27.17;;
36797;SDS011;22748;8.426;99.512;2023-12-14T15:34:12;31.42;;;28.35;;
36797;SDS011;22748;8.426;99.512;2023-12-14T15:36:47;29.75;;;26.83;;
36797;SDS011;22748;8.426;99.512;2023-12-14T15:39:18;28.38;;;25.60;;
36797;SDS011;22748;8.426;99.512;2023-12-14T15:44:18;26.60;;;23.95;;
36797;SDS011;22748;8.426;99.512;2023-12-14T15:46:49;23.85;;;21.58;;
36797;SDS011;22748;8.426;99.512;2023-12-14T15:49:19;26.83;;;24.33;;